sensor_id;sensor_type;location;lat;lon;timestamp;P1;durP1;ratioP1;P2;durP2;ratioP2
15285;SDS011;7744;52.172;10.668;2023-08-21T00:02:23;6.15;;;4.93;;
15285;SDS011;7744;52.172;10.668;2023-08-21T00:04:50;5.72;;;4.40;;
15285;SDS011;7744;52.172;10.668;2023-08-21T00:07:16;5.13;;;4.63;;
15285;SDS011;7744;52.172;10.668;2023-08-21T00:09:41;5.20;;;4.70;;
15285;SDS011;7744;52.172;10.668;2023-08-21T00:12:07;5.93;;;4.40;;
15285;SDS011;7744;52.172;10.668;2023-08-21T00:14:33;5.80;;;5.20;;
15285;SDS011;7744;52.172;10.668;2023-08-21T00:16:59;5.10;;;4.60;;
15285;SDS011;7744;52.172;10.668;2023-08-21T00:19:25;5.30;;;4.80;;
15285;SDS011;7744;52.172;10.668;2023-08-21T00:21:50;6.90;;;5.15;;
15285;SDS011;7744;52.172;10.668;2023-08-21T00:24:16;7.10;;;5.47;;
15285;SDS011;7744;52.172;10.668;2023-08-21T00:26:42;6.45;;;4.78;;
15285;SDS011;7744;52.172;10.668;2023-08-21T00:29:08;8.43;;;5.93;;
15285;SDS011;7744;52.172;10.668;2023-08-21T00:31:33;5.93;;;5.07;;
15285;SDS011;7744;52.172;10.668;2023-08-21T00:33:59;6.25;;;5.20;;
15285;SDS011;7744;52.172;10.668;2023-08-21T00:36:24;5.88;;;4.85;;
15285;SDS011;7744;52.172;10.668;2023-08-21T00:38:50;6.22;;;5.00;;
15285;SDS011;7744;52.172;10.668;2023-08-21T00:41:15;8.15;;;5.47;;
15285;SDS011;7744;52.172;10.668;2023-08-21T00:43:41;5.90;;;5.40;;
15285;SDS011;7744;52.172;10.668;2023-08-21T00:46:07;5.32;;;4.65;;
15285;SDS011;7744;52.172;10.668;2023-08-21T00:48:32;6.97;;;5.00;;
15285;SDS011;7744;52.172;10.668;2023-08-21T00:50:58;5.90;;;5.20;;
15285;SDS011;7744;52.172;10.668;2023-08-21T00:53:24;5.80;;;5.38;;
15285;SDS011;7744;52.172;10.668;2023-08-21T00:55:50;5.57;;;5.00;;
15285;SDS011;7744;52.172;10.668;2023-08-21T00:58:16;6.03;;;5.53;;
15285;SDS011;7744;52.172;10.668;2023-08-21T01:00:42;8.13;;;5.47;;
15285;SDS011;7744;52.172;10.668;2023-08-21T01:03:10;5.65;;;5.15;;
15285;SDS011;7744;52.172;10.668;2023-08-21T01:05:36;6.35;;;5.68;;
15285;SDS011;7744;52.172;10.668;2023-08-21T01:08:06;6.57;;;5.53;;
15285;SDS011;7744;52.172;10.668;2023-08-21T01:10:39;7.28;;;5.95;;
15285;SDS011;7744;52.172;10.668;2023-08-21T01:13:41;5.90;;;5.40;;
15285;SDS011;7744;52.172;10.668;2023-08-21T01:16:04;6.18;;;5.57;;
15285;SDS011;7744;52.172;10.668;2023-08-21T01:18:32;6.22;;;5.63;;
15285;SDS011;7744;52.172;10.668;2023-08-21T01:20:59;6.05;;;5.50;;
15285;SDS011;7744;52.172;10.668;2023-08-21T01:23:32;5.50;;;5.00;;
15285;SDS011;7744;52.172;10.668;2023-08-21T01:25:57;6.22;;;5.63;;
15285;SDS011;7744;52.172;10.668;2023-08-21T01:28:23;8.98;;;6.07;;
15285;SDS011;7744;52.172;10.668;2023-08-21T01:30:50;6.97;;;5.55;;
15285;SDS011;7744;52.172;10.668;2023-08-21T01:33:18;6.72;;;5.85;;
15285;SDS011;7744;52.172;10.668;2023-08-21T01:35:45;7.03;;;6.43;;
15285;SDS011;7744;52.172;10.668;2023-08-21T01:38:12;7.13;;;6.15;;
15285;SDS011;7744;52.172;10.668;2023-08-21T01:40:38;6.97;;;6.28;;
15285;SDS011;7744;52.172;10.668;2023-08-21T01:43:04;6.95;;;6.18;;
15285;SDS011;7744;52.172;10.668;2023-08-21T01:45:30;7.13;;;6.47;;
15285;SDS011;7744;52.172;10.668;2023-08-21T01:47:56;7.50;;;6.40;;
15285;SDS011;7744;52.172;10.668;2023-08-21T01:50:21;7.10;;;6.28;;
15285;SDS011;7744;52.172;10.668;2023-08-21T01:52:47;7.57;;;6.78;;
15285;SDS011;7744;52.172;10.668;2023-08-21T01:55:12;8.07;;;6.38;;
15285;SDS011;7744;52.172;10.668;2023-08-21T01:57:38;7.03;;;6.38;;
15285;SDS011;7744;52.172;10.668;2023-08-21T02:00:04;7.45;;;6.72;;
15285;SDS011;7744;52.172;10.668;2023-08-21T02:02:30;7.90;;;7.10;;
15285;SDS011;7744;52.172;10.668;2023-08-21T02:04:56;8.00;;;6.03;;
15285;SDS011;7744;52.172;10.668;2023-08-21T02:07:21;6.65;;;6.05;;
15285;SDS011;7744;52.172;10.668;2023-08-21T02:09:47;7.80;;;6.13;;
15285;SDS011;7744;52.172;10.668;2023-08-21T02:12:12;6.32;;;5.53;;
15285;SDS011;7744;52.172;10.668;2023-08-21T02:14:38;6.38;;;5.78;;
15285;SDS011;7744;52.172;10.668;2023-08-21T02:17:04;6.88;;;6.18;;
15285;SDS011;7744;52.172;10.668;2023-08-21T02:19:30;7.45;;;6.63;;
15285;SDS011;7744;52.172;10.668;2023-08-21T02:21:56;6.97;;;6.20;;
15285;SDS011;7744;52.172;10.668;2023-08-21T02:24:21;6.75;;;6.15;;
15285;SDS011;7744;52.172;10.668;2023-08-21T02:26:47;6.80;;;5.60;;
15285;SDS011;7744;52.172;10.668;2023-08-21T02:29:12;7.47;;;6.05;;
15285;SDS011;7744;52.172;10.668;2023-08-21T02:31:38;6.20;;;5.60;;
15285;SDS011;7744;52.172;10.668;2023-08-21T02:34:04;6.57;;;5.97;;
15285;SDS011;7744;52.172;10.668;2023-08-21T02:36:30;8.98;;;7.18;;
15285;SDS011;7744;52.172;10.668;2023-08-21T02:38:55;10.55;;;6.13;;
15285;SDS011;7744;52.172;10.668;2023-08-21T02:41:21;7.00;;;6.30;;
15285;SDS011;7744;52.172;10.668;2023-08-21T02:43:46;7.47;;;6.03;;
15285;SDS011;7744;52.172;10.668;2023-08-21T02:46:12;8.05;;;6.07;;
15285;SDS011;7744;52.172;10.668;2023-08-21T02:48:38;7.53;;;6.72;;
15285;SDS011;7744;52.172;10.668;2023-08-21T02:51:03;6.82;;;6.28;;
15285;SDS011;7744;52.172;10.668;2023-08-21T02:53:29;8.60;;;6.88;;
15285;SDS011;7744;52.172;10.668;2023-08-21T02:55:54;7.45;;;6.78;;
15285;SDS011;7744;52.172;10.668;2023-08-21T02:58:20;6.68;;;6.18;;
15285;SDS011;7744;52.172;10.668;2023-08-21T03:00:45;7.50;;;6.75;;
15285;SDS011;7744;52.172;10.668;2023-08-21T03:03:11;7.43;;;6.72;;
15285;SDS011;7744;52.172;10.668;2023-08-21T03:05:37;7.45;;;6.03;;
15285;SDS011;7744;52.172;10.668;2023-08-21T03:08:02;7.32;;;6.72;;
15285;SDS011;7744;52.172;10.668;2023-08-21T03:10:28;7.57;;;6.70;;
15285;SDS011;7744;52.172;10.668;2023-08-21T03:12:58;7.43;;;6.57;;
15285;SDS011;7744;52.172;10.668;2023-08-21T03:15:24;7.93;;;7.18;;
15285;SDS011;7744;52.172;10.668;2023-08-21T03:17:49;7.22;;;6.53;;
15285;SDS011;7744;52.172;10.668;2023-08-21T03:20:15;7.32;;;6.72;;
15285;SDS011;7744;52.172;10.668;2023-08-21T03:22:42;7.60;;;6.90;;
15285;SDS011;7744;52.172;10.668;2023-08-21T03:25:08;7.10;;;6.43;;
15285;SDS011;7744;52.172;10.668;2023-08-21T03:27:34;9.32;;;7.78;;
15285;SDS011;7744;52.172;10.668;2023-08-21T03:30:04;8.65;;;7.80;;
15285;SDS011;7744;52.172;10.668;2023-08-21T03:32:33;7.72;;;7.03;;
15285;SDS011;7744;52.172;10.668;2023-08-21T03:34:58;8.23;;;7.45;;
15285;SDS011;7744;52.172;10.668;2023-08-21T03:37:24;8.07;;;7.25;;
15285;SDS011;7744;52.172;10.668;2023-08-21T03:39:50;7.78;;;7.07;;
15285;SDS011;7744;52.172;10.668;2023-08-21T03:42:15;8.55;;;7.60;;
15285;SDS011;7744;52.172;10.668;2023-08-21T03:44:41;8.20;;;7.43;;
15285;SDS011;7744;52.172;10.668;2023-08-21T03:47:07;8.15;;;7.40;;
15285;SDS011;7744;52.172;10.668;2023-08-21T03:49:32;7.75;;;7.10;;
15285;SDS011;7744;52.172;10.668;2023-08-21T03:51:58;8.15;;;6.70;;
15285;SDS011;7744;52.172;10.668;2023-08-21T03:54:24;7.40;;;6.65;;
15285;SDS011;7744;52.172;10.668;2023-08-21T03:56:49;8.05;;;7.18;;
15285;SDS011;7744;52.172;10.668;2023-08-21T03:59:15;7.53;;;6.78;;
15285;SDS011;7744;52.172;10.668;2023-08-21T04:01:40;7.03;;;6.40;;
15285;SDS011;7744;52.172;10.668;2023-08-21T04:04:06;7.22;;;6.63;;
15285;SDS011;7744;52.172;10.668;2023-08-21T04:06:32;7.75;;;7.13;;
15285;SDS011;7744;52.172;10.668;2023-08-21T04:08:57;8.55;;;7.35;;
15285;SDS011;7744;52.172;10.668;2023-08-21T04:11:23;6.72;;;6.22;;
15285;SDS011;7744;52.172;10.668;2023-08-21T04:13:48;7.95;;;7.15;;
15285;SDS011;7744;52.172;10.668;2023-08-21T04:16:14;7.35;;;6.43;;
15285;SDS011;7744;52.172;10.668;2023-08-21T04:18:41;8.13;;;6.50;;
15285;SDS011;7744;52.172;10.668;2023-08-21T04:21:06;6.85;;;6.25;;
15285;SDS011;7744;52.172;10.668;2023-08-21T04:23:32;8.20;;;7.25;;
15285;SDS011;7744;52.172;10.668;2023-08-21T04:26:01;7.00;;;6.38;;
15285;SDS011;7744;52.172;10.668;2023-08-21T04:28:29;7.65;;;6.88;;
15285;SDS011;7744;52.172;10.668;2023-08-21T04:30:55;7.55;;;6.95;;
15285;SDS011;7744;52.172;10.668;2023-08-21T04:33:22;6.97;;;5.78;;
15285;SDS011;7744;52.172;10.668;2023-08-21T04:35:52;7.72;;;7.00;;
15285;SDS011;7744;52.172;10.668;2023-08-21T04:38:18;7.15;;;6.47;;
15285;SDS011;7744;52.172;10.668;2023-08-21T04:40:44;6.63;;;6.03;;
15285;SDS011;7744;52.172;10.668;2023-08-21T04:43:09;7.30;;;6.57;;
15285;SDS011;7744;52.172;10.668;2023-08-21T04:45:35;7.63;;;6.82;;
15285;SDS011;7744;52.172;10.668;2023-08-21T04:48:02;7.68;;;6.90;;
15285;SDS011;7744;52.172;10.668;2023-08-21T04:50:31;8.75;;;7.00;;
15285;SDS011;7744;52.172;10.668;2023-08-21T04:52:56;8.07;;;6.45;;
15285;SDS011;7744;52.172;10.668;2023-08-21T04:55:22;8.05;;;6.82;;
15285;SDS011;7744;52.172;10.668;2023-08-21T04:57:48;7.60;;;6.80;;
15285;SDS011;7744;52.172;10.668;2023-08-21T05:00:14;8.38;;;6.80;;
15285;SDS011;7744;52.172;10.668;2023-08-21T05:02:40;8.27;;;7.40;;
15285;SDS011;7744;52.172;10.668;2023-08-21T05:05:06;7.22;;;6.28;;
15285;SDS011;7744;52.172;10.668;2023-08-21T05:07:34;8.35;;;6.50;;
15285;SDS011;7744;52.172;10.668;2023-08-21T05:10:00;6.80;;;6.20;;
15285;SDS011;7744;52.172;10.668;2023-08-21T05:12:26;8.15;;;6.50;;
15285;SDS011;7744;52.172;10.668;2023-08-21T05:14:51;8.48;;;6.68;;
15285;SDS011;7744;52.172;10.668;2023-08-21T05:17:17;7.57;;;6.28;;
15285;SDS011;7744;52.172;10.668;2023-08-21T05:19:42;8.23;;;6.07;;
15285;SDS011;7744;52.172;10.668;2023-08-21T05:22:08;9.90;;;6.80;;
15285;SDS011;7744;52.172;10.668;2023-08-21T05:24:33;6.30;;;5.78;;
15285;SDS011;7744;52.172;10.668;2023-08-21T05:26:59;6.78;;;5.45;;
15285;SDS011;7744;52.172;10.668;2023-08-21T05:29:25;5.93;;;5.43;;
15285;SDS011;7744;52.172;10.668;2023-08-21T05:31:50;6.68;;;5.07;;
15285;SDS011;7744;52.172;10.668;2023-08-21T05:34:16;7.28;;;5.10;;
15285;SDS011;7744;52.172;10.668;2023-08-21T05:36:41;12.98;;;5.35;;
15285;SDS011;7744;52.172;10.668;2023-08-21T05:39:07;38.20;;;7.28;;
15285;SDS011;7744;52.172;10.668;2023-08-21T05:41:33;10.40;;;5.20;;
15285;SDS011;7744;52.172;10.668;2023-08-21T05:43:58;9.35;;;5.00;;
15285;SDS011;7744;52.172;10.668;2023-08-21T05:46:24;10.05;;;4.80;;
15285;SDS011;7744;52.172;10.668;2023-08-21T05:48:50;6.72;;;4.82;;
15285;SDS011;7744;52.172;10.668;2023-08-21T05:51:15;9.40;;;4.97;;
15285;SDS011;7744;52.172;10.668;2023-08-21T05:53:41;6.03;;;4.80;;
15285;SDS011;7744;52.172;10.668;2023-08-21T05:56:06;8.73;;;5.97;;
15285;SDS011;7744;52.172;10.668;2023-08-21T05:58:32;6.25;;;5.00;;
15285;SDS011;7744;52.172;10.668;2023-08-21T06:00:58;7.22;;;5.30;;
15285;SDS011;7744;52.172;10.668;2023-08-21T06:03:24;6.07;;;4.93;;
15285;SDS011;7744;52.172;10.668;2023-08-21T06:05:49;6.72;;;5.03;;
15285;SDS011;7744;52.172;10.668;2023-08-21T06:08:15;7.82;;;5.10;;
15285;SDS011;7744;52.172;10.668;2023-08-21T06:10:41;7.50;;;5.28;;
15285;SDS011;7744;52.172;10.668;2023-08-21T06:13:06;5.78;;;5.22;;
15285;SDS011;7744;52.172;10.668;2023-08-21T06:15:33;5.78;;;5.22;;
15285;SDS011;7744;52.172;10.668;2023-08-21T06:17:58;6.40;;;4.95;;
15285;SDS011;7744;52.172;10.668;2023-08-21T06:20:25;6.32;;;4.60;;
15285;SDS011;7744;52.172;10.668;2023-08-21T06:22:51;4.38;;;3.90;;
15285;SDS011;7744;52.172;10.668;2023-08-21T06:25:16;6.40;;;4.05;;
15285;SDS011;7744;52.172;10.668;2023-08-21T06:27:44;5.10;;;4.18;;
15285;SDS011;7744;52.172;10.668;2023-08-21T06:30:10;4.75;;;3.70;;
15285;SDS011;7744;52.172;10.668;2023-08-21T06:32:35;5.63;;;3.63;;
15285;SDS011;7744;52.172;10.668;2023-08-21T06:35:01;5.03;;;3.60;;
15285;SDS011;7744;52.172;10.668;2023-08-21T06:37:27;6.10;;;5.05;;
15285;SDS011;7744;52.172;10.668;2023-08-21T06:39:52;5.43;;;5.03;;
15285;SDS011;7744;52.172;10.668;2023-08-21T06:42:18;3.95;;;3.55;;
15285;SDS011;7744;52.172;10.668;2023-08-21T06:44:43;5.60;;;3.83;;
15285;SDS011;7744;52.172;10.668;2023-08-21T06:47:09;6.13;;;3.92;;
15285;SDS011;7744;52.172;10.668;2023-08-21T06:49:35;4.72;;;4.30;;
15285;SDS011;7744;52.172;10.668;2023-08-21T06:52:01;6.03;;;3.70;;
15285;SDS011;7744;52.172;10.668;2023-08-21T06:54:27;5.47;;;4.13;;
15285;SDS011;7744;52.172;10.668;2023-08-21T06:56:53;3.83;;;3.40;;
15285;SDS011;7744;52.172;10.668;2023-08-21T06:59:19;4.78;;;3.38;;
15285;SDS011;7744;52.172;10.668;2023-08-21T07:01:44;5.20;;;4.57;;
15285;SDS011;7744;52.172;10.668;2023-08-21T07:04:10;4.65;;;4.15;;
15285;SDS011;7744;52.172;10.668;2023-08-21T07:06:35;4.78;;;4.32;;
15285;SDS011;7744;52.172;10.668;2023-08-21T07:09:01;4.20;;;3.80;;
15285;SDS011;7744;52.172;10.668;2023-08-21T07:11:27;5.80;;;4.00;;
15285;SDS011;7744;52.172;10.668;2023-08-21T07:13:53;5.82;;;4.63;;
15285;SDS011;7744;52.172;10.668;2023-08-21T07:16:18;5.07;;;4.22;;
15285;SDS011;7744;52.172;10.668;2023-08-21T07:18:44;4.85;;;4.38;;
15285;SDS011;7744;52.172;10.668;2023-08-21T07:21:09;5.60;;;4.70;;
15285;SDS011;7744;52.172;10.668;2023-08-21T07:23:35;5.82;;;4.00;;
15285;SDS011;7744;52.172;10.668;2023-08-21T07:26:00;5.63;;;4.30;;
15285;SDS011;7744;52.172;10.668;2023-08-21T07:28:27;4.47;;;4.03;;
15285;SDS011;7744;52.172;10.668;2023-08-21T07:30:59;4.30;;;3.50;;
15285;SDS011;7744;52.172;10.668;2023-08-21T07:33:25;7.95;;;4.32;;
15285;SDS011;7744;52.172;10.668;2023-08-21T07:35:58;5.65;;;3.78;;
15285;SDS011;7744;52.172;10.668;2023-08-21T07:38:28;7.20;;;4.28;;
15285;SDS011;7744;52.172;10.668;2023-08-21T07:41:08;3.85;;;3.38;;
15285;SDS011;7744;52.172;10.668;2023-08-21T07:43:36;4.13;;;3.38;;
15285;SDS011;7744;52.172;10.668;2023-08-21T07:46:06;4.70;;;3.28;;
15285;SDS011;7744;52.172;10.668;2023-08-21T07:48:32;4.13;;;3.10;;
15285;SDS011;7744;52.172;10.668;2023-08-21T07:50:58;5.13;;;3.00;;
15285;SDS011;7744;52.172;10.668;2023-08-21T07:53:25;3.83;;;2.58;;
15285;SDS011;7744;52.172;10.668;2023-08-21T07:55:51;5.15;;;3.10;;
15285;SDS011;7744;52.172;10.668;2023-08-21T07:58:18;4.95;;;2.80;;
15285;SDS011;7744;52.172;10.668;2023-08-21T08:00:44;4.93;;;2.00;;
15285;SDS011;7744;52.172;10.668;2023-08-21T08:03:09;5.85;;;2.25;;
15285;SDS011;7744;52.172;10.668;2023-08-21T08:05:36;3.05;;;1.80;;
15285;SDS011;7744;52.172;10.668;2023-08-21T08:08:02;4.18;;;1.77;;
15285;SDS011;7744;52.172;10.668;2023-08-21T08:10:28;4.97;;;2.10;;
15285;SDS011;7744;52.172;10.668;2023-08-21T08:12:53;5.40;;;2.40;;
15285;SDS011;7744;52.172;10.668;2023-08-21T08:15:19;2.38;;;1.70;;
15285;SDS011;7744;52.172;10.668;2023-08-21T08:17:46;2.28;;;1.58;;
15285;SDS011;7744;52.172;10.668;2023-08-21T08:20:12;2.65;;;1.70;;
15285;SDS011;7744;52.172;10.668;2023-08-21T08:22:39;2.58;;;1.85;;
15285;SDS011;7744;52.172;10.668;2023-08-21T08:25:04;4.00;;;2.00;;
15285;SDS011;7744;52.172;10.668;2023-08-21T08:27:33;3.53;;;2.17;;
15285;SDS011;7744;52.172;10.668;2023-08-21T08:29:59;4.18;;;2.60;;
15285;SDS011;7744;52.172;10.668;2023-08-21T08:32:25;4.03;;;1.70;;
15285;SDS011;7744;52.172;10.668;2023-08-21T08:34:51;2.95;;;1.80;;
15285;SDS011;7744;52.172;10.668;2023-08-21T08:37:17;3.85;;;1.80;;
15285;SDS011;7744;52.172;10.668;2023-08-21T08:39:43;3.10;;;1.70;;
15285;SDS011;7744;52.172;10.668;2023-08-21T08:42:10;3.33;;;1.70;;
15285;SDS011;7744;52.172;10.668;2023-08-21T08:44:36;5.53;;;1.90;;
15285;SDS011;7744;52.172;10.668;2023-08-21T08:47:03;3.08;;;1.67;;
15285;SDS011;7744;52.172;10.668;2023-08-21T08:49:29;2.47;;;1.60;;
15285;SDS011;7744;52.172;10.668;2023-08-21T08:51:56;2.97;;;1.45;;
15285;SDS011;7744;52.172;10.668;2023-08-21T08:54:23;3.63;;;1.60;;
15285;SDS011;7744;52.172;10.668;2023-08-21T08:56:50;3.95;;;1.80;;
15285;SDS011;7744;52.172;10.668;2023-08-21T08:59:16;2.47;;;1.55;;
15285;SDS011;7744;52.172;10.668;2023-08-21T09:01:42;2.90;;;1.55;;
15285;SDS011;7744;52.172;10.668;2023-08-21T09:04:08;3.47;;;1.70;;
15285;SDS011;7744;52.172;10.668;2023-08-21T09:06:34;3.60;;;1.67;;
15285;SDS011;7744;52.172;10.668;2023-08-21T09:08:59;5.03;;;1.50;;
15285;SDS011;7744;52.172;10.668;2023-08-21T09:11:25;3.50;;;1.33;;
15285;SDS011;7744;52.172;10.668;2023-08-21T09:13:51;2.72;;;1.40;;
15285;SDS011;7744;52.172;10.668;2023-08-21T09:16:18;3.95;;;2.13;;
15285;SDS011;7744;52.172;10.668;2023-08-21T09:18:48;3.15;;;1.88;;
15285;SDS011;7744;52.172;10.668;2023-08-21T09:21:16;5.07;;;2.00;;
15285;SDS011;7744;52.172;10.668;2023-08-21T09:23:42;2.67;;;1.90;;
15285;SDS011;7744;52.172;10.668;2023-08-21T09:26:09;4.82;;;2.20;;
15285;SDS011;7744;52.172;10.668;2023-08-21T09:28:34;3.35;;;1.90;;
15285;SDS011;7744;52.172;10.668;2023-08-21T09:31:00;2.97;;;1.63;;
15285;SDS011;7744;52.172;10.668;2023-08-21T09:33:27;3.70;;;1.40;;
15285;SDS011;7744;52.172;10.668;2023-08-21T09:35:53;3.22;;;1.50;;
15285;SDS011;7744;52.172;10.668;2023-08-21T09:38:19;4.00;;;1.65;;
15285;SDS011;7744;52.172;10.668;2023-08-21T09:40:52;3.72;;;1.95;;
15285;SDS011;7744;52.172;10.668;2023-08-21T09:43:19;3.67;;;2.00;;
15285;SDS011;7744;52.172;10.668;2023-08-21T09:45:47;6.38;;;2.00;;
15285;SDS011;7744;52.172;10.668;2023-08-21T09:48:14;4.78;;;2.10;;
15285;SDS011;7744;52.172;10.668;2023-08-21T09:50:39;4.25;;;2.35;;
15285;SDS011;7744;52.172;10.668;2023-08-21T09:53:08;4.90;;;2.42;;
15285;SDS011;7744;52.172;10.668;2023-08-21T09:55:34;4.18;;;2.05;;
15285;SDS011;7744;52.172;10.668;2023-08-21T09:58:01;3.00;;;1.50;;
15285;SDS011;7744;52.172;10.668;2023-08-21T10:00:31;4.13;;;2.22;;
15285;SDS011;7744;52.172;10.668;2023-08-21T10:03:03;3.38;;;2.25;;
15285;SDS011;7744;52.172;10.668;2023-08-21T10:05:32;3.50;;;2.30;;
15285;SDS011;7744;52.172;10.668;2023-08-21T10:08:03;4.78;;;2.40;;
15285;SDS011;7744;52.172;10.668;2023-08-21T10:10:48;5.45;;;2.10;;
15285;SDS011;7744;52.172;10.668;2023-08-21T10:13:13;3.35;;;1.67;;
15285;SDS011;7744;52.172;10.668;2023-08-21T10:15:40;2.70;;;1.73;;
15285;SDS011;7744;52.172;10.668;2023-08-21T10:20:45;2.70;;;1.65;;
15285;SDS011;7744;52.172;10.668;2023-08-21T10:23:23;3.08;;;1.65;;
15285;SDS011;7744;52.172;10.668;2023-08-21T10:25:59;3.17;;;1.60;;
15285;SDS011;7744;52.172;10.668;2023-08-21T10:31:27;3.88;;;1.70;;
15285;SDS011;7744;52.172;10.668;2023-08-21T10:33:53;4.30;;;1.80;;
15285;SDS011;7744;52.172;10.668;2023-08-21T10:39:13;4.75;;;1.90;;
15285;SDS011;7744;52.172;10.668;2023-08-21T10:41:55;4.07;;;2.10;;
15285;SDS011;7744;52.172;10.668;2023-08-21T10:49:43;3.45;;;1.77;;
15285;SDS011;7744;52.172;10.668;2023-08-21T10:52:13;3.38;;;1.70;;
15285;SDS011;7744;52.172;10.668;2023-08-21T10:54:43;5.75;;;1.80;;
15285;SDS011;7744;52.172;10.668;2023-08-21T10:57:10;5.55;;;2.10;;
15285;SDS011;7744;52.172;10.668;2023-08-21T10:59:35;3.40;;;1.70;;
15285;SDS011;7744;52.172;10.668;2023-08-21T11:02:01;3.47;;;1.65;;
15285;SDS011;7744;52.172;10.668;2023-08-21T11:04:26;4.93;;;1.70;;
15285;SDS011;7744;52.172;10.668;2023-08-21T11:06:52;2.30;;;1.40;;
15285;SDS011;7744;52.172;10.668;2023-08-21T11:09:17;5.13;;;1.88;;
15285;SDS011;7744;52.172;10.668;2023-08-21T11:11:44;7.30;;;3.50;;
15285;SDS011;7744;52.172;10.668;2023-08-21T11:14:09;6.50;;;1.90;;
15285;SDS011;7744;52.172;10.668;2023-08-21T11:16:35;7.15;;;2.00;;
15285;SDS011;7744;52.172;10.668;2023-08-21T11:19:04;6.25;;;2.30;;
15285;SDS011;7744;52.172;10.668;2023-08-21T11:21:32;4.88;;;2.03;;
15285;SDS011;7744;52.172;10.668;2023-08-21T11:23:58;5.53;;;2.47;;
15285;SDS011;7744;52.172;10.668;2023-08-21T11:26:24;3.28;;;1.95;;
15285;SDS011;7744;52.172;10.668;2023-08-21T11:28:50;4.45;;;1.88;;
15285;SDS011;7744;52.172;10.668;2023-08-21T11:31:16;1.95;;;1.67;;
15285;SDS011;7744;52.172;10.668;2023-08-21T11:33:48;4.03;;;1.92;;
15285;SDS011;7744;52.172;10.668;2023-08-21T11:36:14;3.38;;;1.60;;
15285;SDS011;7744;52.172;10.668;2023-08-21T11:38:40;4.18;;;1.30;;
15285;SDS011;7744;52.172;10.668;2023-08-21T11:41:06;5.03;;;1.70;;
15285;SDS011;7744;52.172;10.668;2023-08-21T11:46:05;2.85;;;1.50;;
15285;SDS011;7744;52.172;10.668;2023-08-21T11:48:32;6.28;;;1.63;;
15285;SDS011;7744;52.172;10.668;2023-08-21T11:50:57;4.28;;;1.30;;
15285;SDS011;7744;52.172;10.668;2023-08-21T11:53:30;4.88;;;1.70;;
15285;SDS011;7744;52.172;10.668;2023-08-21T11:56:00;2.97;;;1.50;;
15285;SDS011;7744;52.172;10.668;2023-08-21T11:58:27;4.22;;;1.52;;
15285;SDS011;7744;52.172;10.668;2023-08-21T12:00:53;2.75;;;1.05;;
15285;SDS011;7744;52.172;10.668;2023-08-21T12:03:19;20.60;;;2.92;;
15285;SDS011;7744;52.172;10.668;2023-08-21T12:05:45;3.03;;;1.40;;
15285;SDS011;7744;52.172;10.668;2023-08-21T12:08:10;3.67;;;1.40;;
15285;SDS011;7744;52.172;10.668;2023-08-21T12:10:36;4.32;;;1.45;;
15285;SDS011;7744;52.172;10.668;2023-08-21T12:13:02;3.03;;;1.30;;
15285;SDS011;7744;52.172;10.668;2023-08-21T12:15:28;3.97;;;1.50;;
15285;SDS011;7744;52.172;10.668;2023-08-21T12:17:53;4.95;;;1.30;;
15285;SDS011;7744;52.172;10.668;2023-08-21T12:20:19;3.95;;;1.33;;
15285;SDS011;7744;52.172;10.668;2023-08-21T12:22:45;3.30;;;1.40;;
15285;SDS011;7744;52.172;10.668;2023-08-21T12:25:11;4.40;;;1.27;;
15285;SDS011;7744;52.172;10.668;2023-08-21T12:27:38;3.25;;;1.48;;
15285;SDS011;7744;52.172;10.668;2023-08-21T12:30:04;2.83;;;1.38;;
15285;SDS011;7744;52.172;10.668;2023-08-21T12:32:30;5.63;;;1.30;;
15285;SDS011;7744;52.172;10.668;2023-08-21T12:34:56;3.53;;;1.48;;
15285;SDS011;7744;52.172;10.668;2023-08-21T12:37:21;2.83;;;1.35;;
15285;SDS011;7744;52.172;10.668;2023-08-21T12:39:47;2.88;;;1.23;;
15285;SDS011;7744;52.172;10.668;2023-08-21T12:42:12;3.03;;;1.27;;
15285;SDS011;7744;52.172;10.668;2023-08-21T12:44:38;3.58;;;1.40;;
15285;SDS011;7744;52.172;10.668;2023-08-21T12:47:04;3.42;;;1.45;;
15285;SDS011;7744;52.172;10.668;2023-08-21T12:49:29;2.58;;;1.30;;
15285;SDS011;7744;52.172;10.668;2023-08-21T12:51:55;3.50;;;1.50;;
15285;SDS011;7744;52.172;10.668;2023-08-21T12:54:21;7.47;;;1.38;;
15285;SDS011;7744;52.172;10.668;2023-08-21T12:56:46;16.88;;;2.58;;
15285;SDS011;7744;52.172;10.668;2023-08-21T12:59:12;13.45;;;1.95;;
15285;SDS011;7744;52.172;10.668;2023-08-21T13:01:39;4.03;;;1.50;;
15285;SDS011;7744;52.172;10.668;2023-08-21T13:04:05;3.58;;;1.23;;
15285;SDS011;7744;52.172;10.668;2023-08-21T13:06:31;4.18;;;1.33;;
15285;SDS011;7744;52.172;10.668;2023-08-21T13:08:56;1.90;;;1.38;;
15285;SDS011;7744;52.172;10.668;2023-08-21T13:11:22;2.20;;;1.27;;
15285;SDS011;7744;52.172;10.668;2023-08-21T13:13:47;4.15;;;1.40;;
15285;SDS011;7744;52.172;10.668;2023-08-21T13:16:13;2.75;;;1.27;;
15285;SDS011;7744;52.172;10.668;2023-08-21T13:18:39;3.13;;;1.10;;
15285;SDS011;7744;52.172;10.668;2023-08-21T13:21:04;3.42;;;1.13;;
15285;SDS011;7744;52.172;10.668;2023-08-21T13:23:30;3.50;;;1.65;;
15285;SDS011;7744;52.172;10.668;2023-08-21T13:25:56;3.25;;;1.58;;
15285;SDS011;7744;52.172;10.668;2023-08-21T13:28:23;5.97;;;1.67;;
15285;SDS011;7744;52.172;10.668;2023-08-21T13:30:49;3.10;;;1.15;;
15285;SDS011;7744;52.172;10.668;2023-08-21T13:33:14;3.22;;;1.35;;
15285;SDS011;7744;52.172;10.668;2023-08-21T13:35:40;3.00;;;1.05;;
15285;SDS011;7744;52.172;10.668;2023-08-21T13:38:06;3.22;;;1.38;;
15285;SDS011;7744;52.172;10.668;2023-08-21T13:40:33;4.50;;;1.48;;
15285;SDS011;7744;52.172;10.668;2023-08-21T13:42:58;2.90;;;1.10;;
15285;SDS011;7744;52.172;10.668;2023-08-21T13:45:25;2.08;;;1.17;;
15285;SDS011;7744;52.172;10.668;2023-08-21T13:47:50;4.50;;;1.30;;
15285;SDS011;7744;52.172;10.668;2023-08-21T13:50:17;4.43;;;1.17;;
15285;SDS011;7744;52.172;10.668;2023-08-21T13:52:43;6.57;;;1.23;;
15285;SDS011;7744;52.172;10.668;2023-08-21T13:55:10;5.90;;;1.60;;
15285;SDS011;7744;52.172;10.668;2023-08-21T13:57:36;5.78;;;1.30;;
15285;SDS011;7744;52.172;10.668;2023-08-21T14:00:02;4.03;;;1.30;;
15285;SDS011;7744;52.172;10.668;2023-08-21T14:02:35;3.13;;;1.10;;
15285;SDS011;7744;52.172;10.668;2023-08-21T14:05:00;3.08;;;1.25;;
15285;SDS011;7744;52.172;10.668;2023-08-21T14:07:28;7.75;;;1.58;;
15285;SDS011;7744;52.172;10.668;2023-08-21T14:09:54;3.08;;;1.10;;
15285;SDS011;7744;52.172;10.668;2023-08-21T14:12:19;2.20;;;1.05;;
15285;SDS011;7744;52.172;10.668;2023-08-21T14:14:45;3.42;;;1.23;;
15285;SDS011;7744;52.172;10.668;2023-08-21T14:17:10;3.75;;;1.40;;
15285;SDS011;7744;52.172;10.668;2023-08-21T14:19:36;4.00;;;1.30;;
15285;SDS011;7744;52.172;10.668;2023-08-21T14:22:02;4.40;;;1.30;;
15285;SDS011;7744;52.172;10.668;2023-08-21T14:24:28;2.03;;;1.00;;
15285;SDS011;7744;52.172;10.668;2023-08-21T14:26:53;4.10;;;1.20;;
15285;SDS011;7744;52.172;10.668;2023-08-21T14:29:19;2.85;;;1.23;;
15285;SDS011;7744;52.172;10.668;2023-08-21T14:31:45;2.85;;;1.30;;
15285;SDS011;7744;52.172;10.668;2023-08-21T14:34:12;6.35;;;1.70;;
15285;SDS011;7744;52.172;10.668;2023-08-21T14:36:38;2.80;;;0.80;;
15285;SDS011;7744;52.172;10.668;2023-08-21T14:39:03;3.15;;;1.05;;
15285;SDS011;7744;52.172;10.668;2023-08-21T14:41:29;3.20;;;1.10;;
15285;SDS011;7744;52.172;10.668;2023-08-21T14:43:54;3.25;;;1.13;;
15285;SDS011;7744;52.172;10.668;2023-08-21T14:46:20;1.95;;;1.00;;
15285;SDS011;7744;52.172;10.668;2023-08-21T14:48:46;4.13;;;1.20;;
15285;SDS011;7744;52.172;10.668;2023-08-21T14:51:12;3.38;;;1.15;;
15285;SDS011;7744;52.172;10.668;2023-08-21T14:53:37;2.55;;;1.00;;
15285;SDS011;7744;52.172;10.668;2023-08-21T14:56:03;2.55;;;1.15;;
15285;SDS011;7744;52.172;10.668;2023-08-21T14:58:29;4.60;;;1.23;;
15285;SDS011;7744;52.172;10.668;2023-08-21T15:00:54;3.75;;;1.25;;